createdAt,value
2023-05-10T00:00:44.416Z,3.85
2023-05-10T00:06:04.660Z,3.25
2023-05-10T00:11:25.715Z,3.47
2023-05-10T00:16:46.033Z,2.55
2023-05-10T00:22:06.746Z,3.63
2023-05-10T00:27:27.129Z,3.47
2023-05-10T00:32:49.185Z,4.32
2023-05-10T00:38:09.709Z,7.07
2023-05-10T00:43:30.928Z,4.82
2023-05-10T00:48:51.367Z,2.60
2023-05-10T00:54:13.293Z,8.95
2023-05-10T00:59:34.074Z,6.32
2023-05-10T01:04:55.042Z,4.55
2023-05-10T01:10:16.013Z,3.53
2023-05-10T01:15:37.771Z,4.85
2023-05-10T01:21:09.874Z,4.88
2023-05-10T01:27:04.524Z,6.32
2023-05-10T01:32:46.513Z,3.33
2023-05-10T01:38:32.479Z,5.38
2023-05-10T01:44:02.160Z,3.55
2023-05-10T01:49:29.963Z,5.30
2023-05-10T01:54:56.300Z,7.32
2023-05-10T02:00:19.027Z,3.63
2023-05-10T02:05:42.282Z,5.47
2023-05-10T02:11:04.713Z,11.57
2023-05-10T02:16:28.151Z,3.75
2023-05-10T02:21:52.199Z,7.70
2023-05-10T02:27:13.592Z,4.65
2023-05-10T02:32:36.460Z,5.93
2023-05-10T02:37:59.447Z,4.30
2023-05-10T02:43:24.057Z,5.20
2023-05-10T02:48:44.882Z,6.75
2023-05-10T02:54:13.049Z,8.27
2023-05-10T02:59:33.689Z,3.28
2023-05-10T03:04:54.588Z,4.00
2023-05-10T03:10:16.831Z,5.15
2023-05-10T03:16:10.095Z,3.53
2023-05-10T03:21:32.738Z,4.18
2023-05-10T03:26:58.008Z,3.50
2023-05-10T03:32:18.923Z,9.82
2023-05-10T03:37:40.782Z,4.93
2023-05-10T03:43:01.404Z,4.07
2023-05-10T03:48:22.676Z,6.53
2023-05-10T03:53:43.088Z,8.23
2023-05-10T03:59:08.207Z,8.15
2023-05-10T04:04:28.697Z,5.40
2023-05-10T04:09:49.026Z,6.20
2023-05-10T04:15:09.760Z,7.68
2023-05-10T04:20:34.097Z,8.77
2023-05-10T04:26:00.871Z,6.45
2023-05-10T04:31:21.605Z,4.68
2023-05-10T04:36:42.245Z,5.07
2023-05-10T04:42:04.247Z,7.35
2023-05-10T04:47:24.586Z,6.72
2023-05-10T04:52:45.217Z,7.85
2023-05-10T05:06:04.229Z,7.90
2023-05-10T05:11:26.401Z,8.25
2023-05-10T05:16:47.084Z,10.55
2023-05-10T05:22:08.472Z,10.20
2023-05-10T05:27:28.935Z,5.75
2023-05-10T05:32:49.364Z,8.40
2023-05-10T05:38:09.761Z,5.03
2023-05-10T05:43:30.492Z,4.38
2023-05-10T05:48:50.863Z,14.50
2023-05-10T05:54:11.676Z,5.72
2023-05-10T05:59:32.386Z,12.63
2023-05-10T06:04:53.075Z,11.40
2023-05-10T06:10:13.876Z,7.72
2023-05-10T06:15:34.313Z,8.60
2023-05-10T06:20:55.003Z,9.35
2023-05-10T06:26:15.699Z,6.38
2023-05-10T06:31:36.389Z,6.05
2023-05-10T06:36:56.438Z,4.95
2023-05-10T06:42:16.907Z,5.82
2023-05-10T06:47:41.557Z,11.60
2023-05-10T06:53:05.265Z,13.55
2023-05-10T06:58:26.200Z,7.70
2023-05-10T07:03:46.927Z,7.22
2023-05-10T07:09:08.679Z,4.70
2023-05-10T07:14:29.218Z,6.82
2023-05-10T07:19:50.047Z,5.00
2023-05-10T07:25:10.742Z,6.18
2023-05-10T07:30:31.659Z,6.18
2023-05-10T07:35:52.634Z,8.90
2023-05-10T07:41:13.531Z,7.82
2023-05-10T07:46:34.134Z,6.15
2023-05-10T07:51:54.897Z,7.85
2023-05-10T07:57:18.309Z,10.80
2023-05-10T08:02:39.110Z,9.25
2023-05-10T08:08:00.486Z,6.05
2023-05-10T08:13:21.063Z,9.27
2023-05-10T08:18:42.444Z,5.70
2023-05-10T08:24:03.099Z,5.72
2023-05-10T08:29:23.392Z,9.35
2023-05-10T08:34:44.235Z,7.07
2023-05-10T08:40:05.144Z,12.98
2023-05-10T08:45:32.011Z,6.50
2023-05-10T08:50:58.577Z,6.60
2023-05-10T08:56:20.859Z,5.95
2023-05-10T09:01:45.083Z,9.77
2023-05-10T09:12:28.303Z,8.98
2023-05-10T09:17:50.553Z,7.43
2023-05-10T09:23:11.221Z,6.93
2023-05-10T09:28:50.681Z,9.27
2023-05-10T09:34:11.556Z,8.00
2023-05-10T09:39:39.264Z,7.75
2023-05-10T09:45:07.632Z,12.27
2023-05-10T09:50:28.862Z,9.88
2023-05-10T09:55:51.462Z,15.82
2023-05-10T10:01:13.175Z,10.00
2023-05-10T10:06:40.858Z,7.90
2023-05-10T10:12:03.034Z,9.07
2023-05-10T10:17:28.762Z,9.48
2023-05-10T10:22:49.686Z,9.38
2023-05-10T10:28:33.342Z,10.57
2023-05-10T10:34:06.396Z,9.77
2023-05-10T10:39:27.660Z,16.90
2023-05-10T10:44:48.568Z,10.75
2023-05-10T10:50:09.776Z,10.15
2023-05-10T10:55:31.315Z,10.68
2023-05-10T11:01:11.239Z,9.05
2023-05-10T11:06:36.408Z,12.18
2023-05-10T11:11:57.255Z,10.65
2023-05-10T11:17:26.011Z,9.43
2023-05-10T11:22:54.038Z,11.63
2023-05-10T11:28:15.245Z,13.38
2023-05-10T11:33:49.025Z,9.90
2023-05-10T11:39:10.827Z,13.10
2023-05-10T11:44:34.433Z,14.85
2023-05-10T11:49:54.937Z,19.43
2023-05-10T11:55:15.396Z,16.70
2023-05-10T12:00:36.126Z,23.52
2023-05-10T12:05:57.472Z,14.70
2023-05-10T12:11:18.667Z,12.38
2023-05-10T12:16:39.793Z,17.75
2023-05-10T12:22:00.322Z,15.15
2023-05-10T12:27:21.615Z,16.77
2023-05-10T12:32:43.124Z,14.02
2023-05-10T12:38:27.966Z,13.40
2023-05-10T12:43:49.173Z,11.48
2023-05-10T12:49:10.149Z,10.73
2023-05-10T12:54:30.596Z,15.73
2023-05-10T12:59:51.740Z,11.05
2023-05-10T13:05:14.197Z,13.15
2023-05-10T13:10:34.973Z,15.85
2023-05-10T13:15:55.627Z,12.85
2023-05-10T13:21:16.289Z,12.25
2023-05-10T13:26:37.979Z,11.40
2023-05-10T13:32:00.435Z,12.15
2023-05-10T13:37:21.137Z,10.50
2023-05-10T13:42:41.936Z,16.73
2023-05-10T13:48:02.773Z,12.93
2023-05-10T13:53:23.357Z,14.02
2023-05-10T13:58:44.184Z,13.48
2023-05-10T14:04:04.810Z,15.43
2023-05-10T14:09:25.771Z,13.02
2023-05-10T14:14:46.614Z,15.43
2023-05-10T14:20:08.067Z,12.10
2023-05-10T14:25:29.043Z,12.85
2023-05-10T14:30:49.633Z,13.00
2023-05-10T14:36:10.217Z,11.95
2023-05-10T14:41:31.276Z,11.15
2023-05-10T14:46:51.960Z,11.40
2023-05-10T14:52:13.294Z,15.30
2023-05-10T14:57:34.432Z,12.48
2023-05-10T15:02:55.128Z,23.38
2023-05-10T15:08:16.515Z,26.08
2023-05-10T15:13:37.505Z,34.10
2023-05-10T15:18:58.551Z,20.73
2023-05-10T15:24:19.158Z,9.13
2023-05-10T15:29:39.933Z,4.68
2023-05-10T15:35:00.325Z,2.92
2023-05-10T15:40:20.783Z,5.68
2023-05-10T15:45:42.502Z,5.25
2023-05-10T15:51:02.925Z,2.60
2023-05-10T15:56:23.553Z,2.95
2023-05-10T16:01:44.449Z,3.33
2023-05-10T16:07:05.283Z,4.32
2023-05-10T16:12:26.305Z,6.47
2023-05-10T16:17:46.788Z,9.77
2023-05-10T16:23:08.034Z,6.30
2023-05-10T16:28:28.791Z,7.13
2023-05-10T16:33:49.639Z,8.15
2023-05-10T16:39:10.138Z,7.22
2023-05-10T16:44:31.055Z,2.60
2023-05-10T16:49:51.499Z,5.60
2023-05-10T16:55:12.344Z,6.07
2023-05-10T17:00:33.383Z,8.68
2023-05-10T17:05:53.930Z,4.72
2023-05-10T17:11:14.599Z,5.60
2023-05-10T17:16:35.784Z,6.15
2023-05-10T17:21:56.774Z,5.25
2023-05-10T17:27:17.343Z,3.42
2023-05-10T17:32:37.689Z,7.70
2023-05-10T17:37:58.328Z,9.77
2023-05-10T17:43:18.863Z,20.35
2023-05-10T17:48:39.840Z,7.07
2023-05-10T17:53:59.976Z,20.92
2023-05-10T17:59:21.030Z,21.40
2023-05-10T18:04:41.265Z,16.60
2023-05-10T18:10:01.942Z,15.45
2023-05-10T18:15:22.294Z,15.68
2023-05-10T18:20:43.418Z,19.48
2023-05-10T18:26:03.775Z,16.65
2023-05-10T18:31:24.680Z,17.42
2023-05-10T18:36:45.364Z,14.10
2023-05-10T18:42:05.909Z,12.38
2023-05-10T18:47:26.756Z,15.90
2023-05-10T18:52:47.431Z,5.28
2023-05-10T18:58:08.105Z,5.82
2023-05-10T19:03:30.002Z,6.88
2023-05-10T19:08:50.815Z,2.05
2023-05-10T19:14:11.410Z,2.53
2023-05-10T19:19:32.094Z,1.67
2023-05-10T19:24:53.499Z,2.53
2023-05-10T19:30:14.611Z,2.28
2023-05-10T19:35:35.222Z,1.88
2023-05-10T19:40:59.551Z,1.10
2023-05-10T19:51:41.265Z,4.72
2023-05-10T19:57:02.695Z,5.70
2023-05-10T20:02:23.390Z,7.30
2023-05-10T20:07:43.842Z,2.03
2023-05-10T20:13:04.205Z,4.03
2023-05-10T20:18:25.975Z,3.60
2023-05-10T20:23:46.185Z,4.28
2023-05-10T20:29:09.396Z,2.25
2023-05-10T20:34:29.803Z,2.30
2023-05-10T20:39:50.536Z,2.75
2023-05-10T20:45:11.342Z,3.45
2023-05-10T20:50:32.245Z,1.83
2023-05-10T20:55:53.088Z,4.80
2023-05-10T21:01:14.168Z,2.97
2023-05-10T21:06:35.131Z,2.40
2023-05-10T21:11:55.867Z,4.03
2023-05-10T21:17:18.762Z,2.78
2023-05-10T21:22:40.528Z,2.90
2023-05-10T21:28:01.253Z,1.50
2023-05-10T21:33:21.718Z,2.90
2023-05-10T21:38:44.410Z,9.07
2023-05-10T21:44:05.135Z,2.42
2023-05-10T21:49:26.192Z,2.97
2023-05-10T21:54:47.009Z,6.97
2023-05-10T22:00:08.221Z,8.27
2023-05-10T22:05:28.820Z,6.38
2023-05-10T22:10:49.157Z,4.97
2023-05-10T22:16:09.911Z,2.05
2023-05-10T22:21:30.636Z,10.70
2023-05-10T22:26:54.052Z,6.35
2023-05-10T22:32:15.111Z,7.47
2023-05-10T22:37:35.775Z,3.25
2023-05-10T22:42:56.801Z,2.97
2023-05-10T22:48:17.383Z,9.13
2023-05-10T22:53:37.863Z,5.63
2023-05-10T22:58:58.699Z,3.22
2023-05-10T23:04:19.722Z,1.75
2023-05-10T23:09:40.384Z,1.30
2023-05-10T23:15:00.902Z,1.83
2023-05-10T23:20:21.953Z,10.23
2023-05-10T23:25:42.900Z,7.70
2023-05-10T23:31:03.302Z,1.85
2023-05-10T23:36:23.662Z,1.35
2023-05-10T23:41:44.833Z,3.33
2023-05-10T23:47:06.088Z,13.23
2023-05-10T23:52:26.823Z,4.97
2023-05-10T23:57:47.524Z,0.93
